sensor_id;sensor_type;location;lat;lon;timestamp;P1;durP1;ratioP1;P2;durP2;ratioP2
25780;SDS011;13626;48.128;11.628;2022-08-11T00:01:47;12.95;;;5.53;;
25780;SDS011;13626;48.128;11.628;2022-08-11T00:04:15;7.55;;;4.57;;
25780;SDS011;13626;48.128;11.628;2022-08-11T00:06:42;4.78;;;2.75;;
25780;SDS011;13626;48.128;11.628;2022-08-11T00:09:20;5.10;;;2.90;;
25780;SDS011;13626;48.128;11.628;2022-08-11T00:11:48;4.30;;;2.50;;
25780;SDS011;13626;48.128;11.628;2022-08-11T00:14:17;3.65;;;3.10;;
25780;SDS011;13626;48.128;11.628;2022-08-11T00:19:27;2.83;;;2.53;;
25780;SDS011;13626;48.128;11.628;2022-08-11T00:22:20;3.25;;;2.38;;
25780;SDS011;13626;48.128;11.628;2022-08-11T00:24:48;4.18;;;2.83;;
25780;SDS011;13626;48.128;11.628;2022-08-11T00:27:54;4.28;;;2.65;;
25780;SDS011;13626;48.128;11.628;2022-08-11T00:30:14;13.63;;;5.32;;
25780;SDS011;13626;48.128;11.628;2022-08-11T00:32:44;9.88;;;4.03;;
25780;SDS011;13626;48.128;11.628;2022-08-11T00:35:13;7.53;;;3.60;;
25780;SDS011;13626;48.128;11.628;2022-08-11T00:38:01;8.35;;;3.80;;
25780;SDS011;13626;48.128;11.628;2022-08-11T00:40:36;6.65;;;4.07;;
25780;SDS011;13626;48.128;11.628;2022-08-11T00:46:02;5.10;;;3.20;;
25780;SDS011;13626;48.128;11.628;2022-08-11T00:48:39;6.22;;;3.35;;
25780;SDS011;13626;48.128;11.628;2022-08-11T00:53:53;6.43;;;3.03;;
25780;SDS011;13626;48.128;11.628;2022-08-11T01:31:16;5.38;;;3.42;;
25780;SDS011;13626;48.128;11.628;2022-08-11T01:34:11;5.72;;;3.03;;
25780;SDS011;13626;48.128;11.628;2022-08-11T01:45:25;5.80;;;3.13;;
25780;SDS011;13626;48.128;11.628;2022-08-11T01:48:03;4.43;;;3.45;;
25780;SDS011;13626;48.128;11.628;2022-08-11T02:03:40;9.68;;;4.20;;
25780;SDS011;13626;48.128;11.628;2022-08-11T02:09:07;7.85;;;3.45;;
25780;SDS011;13626;48.128;11.628;2022-08-11T02:11:42;6.15;;;3.30;;
25780;SDS011;13626;48.128;11.628;2022-08-11T02:14:27;3.67;;;2.83;;
25780;SDS011;13626;48.128;11.628;2022-08-11T02:25:07;3.72;;;2.78;;
25780;SDS011;13626;48.128;11.628;2022-08-11T02:27:37;6.20;;;3.05;;
25780;SDS011;13626;48.128;11.628;2022-08-11T02:30:08;3.90;;;3.17;;
25780;SDS011;13626;48.128;11.628;2022-08-11T02:35:29;3.83;;;2.90;;
25780;SDS011;13626;48.128;11.628;2022-08-11T02:38:24;5.60;;;2.92;;
25780;SDS011;13626;48.128;11.628;2022-08-11T02:40:56;5.28;;;2.88;;
25780;SDS011;13626;48.128;11.628;2022-08-11T02:46:04;4.82;;;3.15;;
25780;SDS011;13626;48.128;11.628;2022-08-11T02:48:52;4.22;;;3.00;;
25780;SDS011;13626;48.128;11.628;2022-08-11T02:56:51;3.97;;;3.15;;
25780;SDS011;13626;48.128;11.628;2022-08-11T03:07:45;6.40;;;3.20;;
25780;SDS011;13626;48.128;11.628;2022-08-11T03:10:22;6.35;;;3.50;;
25780;SDS011;13626;48.128;11.628;2022-08-11T03:18:55;6.60;;;3.33;;
25780;SDS011;13626;48.128;11.628;2022-08-11T03:21:28;5.53;;;3.40;;
25780;SDS011;13626;48.128;11.628;2022-08-11T03:24:20;4.95;;;3.30;;
25780;SDS011;13626;48.128;11.628;2022-08-11T03:27:07;5.35;;;3.55;;
25780;SDS011;13626;48.128;11.628;2022-08-11T03:32:28;4.05;;;3.30;;
25780;SDS011;13626;48.128;11.628;2022-08-11T03:34:57;4.10;;;3.42;;
25780;SDS011;13626;48.128;11.628;2022-08-11T03:46:07;5.82;;;3.55;;
25780;SDS011;13626;48.128;11.628;2022-08-11T03:48:38;4.20;;;3.65;;
25780;SDS011;13626;48.128;11.628;2022-08-11T04:07:22;6.72;;;4.10;;
25780;SDS011;13626;48.128;11.628;2022-08-11T04:12:27;4.40;;;3.78;;
25780;SDS011;13626;48.128;11.628;2022-08-11T04:20:43;5.38;;;3.70;;
25780;SDS011;13626;48.128;11.628;2022-08-11T04:26:29;4.10;;;3.58;;
25780;SDS011;13626;48.128;11.628;2022-08-11T04:31:56;7.05;;;3.80;;
25780;SDS011;13626;48.128;11.628;2022-08-11T04:37:23;5.72;;;4.13;;
25780;SDS011;13626;48.128;11.628;2022-08-11T04:40:05;6.07;;;3.53;;
25780;SDS011;13626;48.128;11.628;2022-08-11T04:45:38;5.72;;;4.05;;
25780;SDS011;13626;48.128;11.628;2022-08-11T04:57:05;5.38;;;4.10;;
25780;SDS011;13626;48.128;11.628;2022-08-11T05:13:26;4.72;;;4.07;;
25780;SDS011;13626;48.128;11.628;2022-08-11T05:16:14;6.90;;;3.70;;
25780;SDS011;13626;48.128;11.628;2022-08-11T05:19:00;6.25;;;4.00;;
25780;SDS011;13626;48.128;11.628;2022-08-11T05:21:51;5.10;;;4.00;;
25780;SDS011;13626;48.128;11.628;2022-08-11T05:24:51;5.75;;;3.78;;
25780;SDS011;13626;48.128;11.628;2022-08-11T05:30:56;6.22;;;4.10;;
25780;SDS011;13626;48.128;11.628;2022-08-11T05:33:46;6.40;;;4.13;;
25780;SDS011;13626;48.128;11.628;2022-08-11T05:39:02;6.50;;;3.80;;
25780;SDS011;13626;48.128;11.628;2022-08-11T05:42:02;7.03;;;4.00;;
25780;SDS011;13626;48.128;11.628;2022-08-11T05:45:08;12.90;;;5.15;;
25780;SDS011;13626;48.128;11.628;2022-08-11T05:48:15;5.30;;;4.43;;
25780;SDS011;13626;48.128;11.628;2022-08-11T05:51:01;7.05;;;4.30;;
25780;SDS011;13626;48.128;11.628;2022-08-11T05:53:56;4.60;;;3.90;;
25780;SDS011;13626;48.128;11.628;2022-08-11T05:56:58;4.85;;;4.13;;
25780;SDS011;13626;48.128;11.628;2022-08-11T05:59:26;6.50;;;4.20;;
25780;SDS011;13626;48.128;11.628;2022-08-11T06:01:59;5.93;;;3.65;;
25780;SDS011;13626;48.128;11.628;2022-08-11T06:04:27;4.93;;;4.10;;
25780;SDS011;13626;48.128;11.628;2022-08-11T06:06:56;7.07;;;4.88;;
25780;SDS011;13626;48.128;11.628;2022-08-11T06:09:25;5.82;;;4.20;;
25780;SDS011;13626;48.128;11.628;2022-08-11T06:11:53;5.60;;;4.03;;
25780;SDS011;13626;48.128;11.628;2022-08-11T06:14:22;6.85;;;3.95;;
25780;SDS011;13626;48.128;11.628;2022-08-11T06:16:49;5.57;;;3.92;;
25780;SDS011;13626;48.128;11.628;2022-08-11T06:19:19;6.60;;;4.82;;
25780;SDS011;13626;48.128;11.628;2022-08-11T06:21:48;6.70;;;4.32;;
25780;SDS011;13626;48.128;11.628;2022-08-11T06:24:18;6.22;;;4.10;;
25780;SDS011;13626;48.128;11.628;2022-08-11T06:26:54;9.68;;;3.80;;
25780;SDS011;13626;48.128;11.628;2022-08-11T06:29:45;6.03;;;3.70;;
25780;SDS011;13626;48.128;11.628;2022-08-11T06:32:25;6.93;;;3.88;;
25780;SDS011;13626;48.128;11.628;2022-08-11T06:37:29;4.63;;;3.40;;
25780;SDS011;13626;48.128;11.628;2022-08-11T06:40:09;6.18;;;3.78;;
25780;SDS011;13626;48.128;11.628;2022-08-11T06:42:41;5.75;;;3.47;;
25780;SDS011;13626;48.128;11.628;2022-08-11T06:47:55;6.80;;;3.80;;
25780;SDS011;13626;48.128;11.628;2022-08-11T06:50:26;5.75;;;3.70;;
25780;SDS011;13626;48.128;11.628;2022-08-11T06:53:14;5.43;;;4.05;;
25780;SDS011;13626;48.128;11.628;2022-08-11T06:55:42;4.43;;;3.40;;
25780;SDS011;13626;48.128;11.628;2022-08-11T06:58:30;5.90;;;3.50;;
25780;SDS011;13626;48.128;11.628;2022-08-11T07:01:19;4.72;;;3.50;;
25780;SDS011;13626;48.128;11.628;2022-08-11T07:03:52;4.20;;;3.63;;
25780;SDS011;13626;48.128;11.628;2022-08-11T07:06:39;5.25;;;3.53;;
25780;SDS011;13626;48.128;11.628;2022-08-11T07:12:16;10.38;;;3.10;;
25780;SDS011;13626;48.128;11.628;2022-08-11T07:15:07;5.70;;;3.33;;
25780;SDS011;13626;48.128;11.628;2022-08-11T07:18:47;5.10;;;3.25;;
25780;SDS011;13626;48.128;11.628;2022-08-11T07:21:28;4.57;;;3.38;;
25780;SDS011;13626;48.128;11.628;2022-08-11T07:24:29;3.72;;;3.17;;
25780;SDS011;13626;48.128;11.628;2022-08-11T07:27:30;4.70;;;3.15;;
25780;SDS011;13626;48.128;11.628;2022-08-11T07:30:17;6.43;;;3.20;;
25780;SDS011;13626;48.128;11.628;2022-08-11T07:32:49;5.00;;;2.80;;
25780;SDS011;13626;48.128;11.628;2022-08-11T07:35:27;3.70;;;3.17;;
25780;SDS011;13626;48.128;11.628;2022-08-11T07:37:59;6.63;;;3.10;;
25780;SDS011;13626;48.128;11.628;2022-08-11T07:40:32;4.85;;;3.20;;
25780;SDS011;13626;48.128;11.628;2022-08-11T07:42:59;5.57;;;3.20;;
25780;SDS011;13626;48.128;11.628;2022-08-11T07:45:27;5.10;;;3.10;;
25780;SDS011;13626;48.128;11.628;2022-08-11T07:48:14;5.47;;;2.70;;
25780;SDS011;13626;48.128;11.628;2022-08-11T07:51:00;7.72;;;3.03;;
25780;SDS011;13626;48.128;11.628;2022-08-11T07:53:47;4.63;;;2.83;;
25780;SDS011;13626;48.128;11.628;2022-08-11T07:56:38;3.08;;;2.78;;
25780;SDS011;13626;48.128;11.628;2022-08-11T07:59:21;5.13;;;2.70;;
25780;SDS011;13626;48.128;11.628;2022-08-11T08:02:27;4.28;;;2.97;;
25780;SDS011;13626;48.128;11.628;2022-08-11T08:05:13;2.65;;;2.45;;
25780;SDS011;13626;48.128;11.628;2022-08-11T08:08:00;5.78;;;2.55;;
25780;SDS011;13626;48.128;11.628;2022-08-11T08:10:46;7.38;;;2.80;;
25780;SDS011;13626;48.128;11.628;2022-08-11T08:13:32;3.00;;;2.65;;
25780;SDS011;13626;48.128;11.628;2022-08-11T08:16:19;4.03;;;3.05;;
25780;SDS011;13626;48.128;11.628;2022-08-11T08:19:05;4.32;;;2.83;;
25780;SDS011;13626;48.128;11.628;2022-08-11T08:21:32;3.85;;;2.72;;
25780;SDS011;13626;48.128;11.628;2022-08-11T08:24:00;4.30;;;2.80;;
25780;SDS011;13626;48.128;11.628;2022-08-11T08:26:28;4.57;;;3.30;;
25780;SDS011;13626;48.128;11.628;2022-08-11T08:29:17;5.65;;;2.78;;
25780;SDS011;13626;48.128;11.628;2022-08-11T08:32:04;2.67;;;2.42;;
25780;SDS011;13626;48.128;11.628;2022-08-11T08:34:56;5.15;;;2.78;;
25780;SDS011;13626;48.128;11.628;2022-08-11T08:37:24;5.25;;;2.92;;
25780;SDS011;13626;48.128;11.628;2022-08-11T08:40:12;4.15;;;2.70;;
25780;SDS011;13626;48.128;11.628;2022-08-11T08:42:41;7.10;;;3.30;;
25780;SDS011;13626;48.128;11.628;2022-08-11T08:45:11;6.15;;;2.72;;
25780;SDS011;13626;48.128;11.628;2022-08-11T08:47:41;3.67;;;2.60;;
25780;SDS011;13626;48.128;11.628;2022-08-11T08:50:10;6.35;;;2.60;;
25780;SDS011;13626;48.128;11.628;2022-08-11T08:52:44;3.03;;;2.47;;
25780;SDS011;13626;48.128;11.628;2022-08-11T08:55:16;5.55;;;2.55;;
25780;SDS011;13626;48.128;11.628;2022-08-11T08:57:43;4.65;;;2.80;;
25780;SDS011;13626;48.128;11.628;2022-08-11T09:00:12;4.03;;;2.83;;
25780;SDS011;13626;48.128;11.628;2022-08-11T09:02:47;3.15;;;2.65;;
25780;SDS011;13626;48.128;11.628;2022-08-11T09:05:18;2.92;;;2.55;;
25780;SDS011;13626;48.128;11.628;2022-08-11T09:07:46;2.92;;;2.60;;
25780;SDS011;13626;48.128;11.628;2022-08-11T09:10:17;4.18;;;2.75;;
25780;SDS011;13626;48.128;11.628;2022-08-11T09:12:45;4.10;;;2.72;;
25780;SDS011;13626;48.128;11.628;2022-08-11T09:15:13;5.63;;;2.80;;
25780;SDS011;13626;48.128;11.628;2022-08-11T09:17:52;5.10;;;2.83;;
25780;SDS011;13626;48.128;11.628;2022-08-11T09:20:26;6.70;;;3.72;;
25780;SDS011;13626;48.128;11.628;2022-08-11T09:23:00;7.32;;;3.40;;
25780;SDS011;13626;48.128;11.628;2022-08-11T09:26:07;3.53;;;2.85;;
25780;SDS011;13626;48.128;11.628;2022-08-11T09:28:56;6.78;;;3.65;;
25780;SDS011;13626;48.128;11.628;2022-08-11T09:31:24;4.68;;;2.88;;
25780;SDS011;13626;48.128;11.628;2022-08-11T09:33:53;4.03;;;3.08;;
25780;SDS011;13626;48.128;11.628;2022-08-11T09:36:20;5.10;;;3.10;;
25780;SDS011;13626;48.128;11.628;2022-08-11T09:39:06;4.40;;;2.88;;
25780;SDS011;13626;48.128;11.628;2022-08-11T09:41:53;8.85;;;3.05;;
25780;SDS011;13626;48.128;11.628;2022-08-11T09:44:29;5.70;;;3.00;;
25780;SDS011;13626;48.128;11.628;2022-08-11T09:47:17;5.30;;;3.10;;
25780;SDS011;13626;48.128;11.628;2022-08-11T09:49:44;3.17;;;2.85;;
25780;SDS011;13626;48.128;11.628;2022-08-11T09:52:14;5.07;;;3.03;;
25780;SDS011;13626;48.128;11.628;2022-08-11T09:54:42;6.55;;;2.90;;
25780;SDS011;13626;48.128;11.628;2022-08-11T09:57:13;5.25;;;3.08;;
25780;SDS011;13626;48.128;11.628;2022-08-11T10:00:04;5.45;;;2.85;;
25780;SDS011;13626;48.128;11.628;2022-08-11T10:02:43;5.60;;;2.95;;
25780;SDS011;13626;48.128;11.628;2022-08-11T10:05:11;2.97;;;2.70;;
25780;SDS011;13626;48.128;11.628;2022-08-11T10:07:59;12.40;;;3.45;;
25780;SDS011;13626;48.128;11.628;2022-08-11T10:10:27;4.32;;;2.83;;
25780;SDS011;13626;48.128;11.628;2022-08-11T10:12:57;6.50;;;2.70;;
25780;SDS011;13626;48.128;11.628;2022-08-11T10:15:25;4.10;;;2.58;;
25780;SDS011;13626;48.128;11.628;2022-08-11T10:18:28;6.45;;;2.70;;
25780;SDS011;13626;48.128;11.628;2022-08-11T10:21:22;3.92;;;3.00;;
25780;SDS011;13626;48.128;11.628;2022-08-11T10:23:51;3.70;;;2.70;;
25780;SDS011;13626;48.128;11.628;2022-08-11T10:26:48;3.08;;;2.58;;
25780;SDS011;13626;48.128;11.628;2022-08-11T10:29:27;3.28;;;2.78;;
25780;SDS011;13626;48.128;11.628;2022-08-11T10:32:18;4.50;;;3.30;;
25780;SDS011;13626;48.128;11.628;2022-08-11T10:35:25;4.43;;;2.97;;
25780;SDS011;13626;48.128;11.628;2022-08-11T10:37:52;3.80;;;2.90;;
25780;SDS011;13626;48.128;11.628;2022-08-11T10:40:34;3.65;;;2.85;;
25780;SDS011;13626;48.128;11.628;2022-08-11T10:43:02;4.03;;;3.40;;
25780;SDS011;13626;48.128;11.628;2022-08-11T10:45:38;3.78;;;3.08;;
25780;SDS011;13626;48.128;11.628;2022-08-11T10:48:25;5.55;;;3.83;;
25780;SDS011;13626;48.128;11.628;2022-08-11T10:50:54;6.47;;;3.13;;
25780;SDS011;13626;48.128;11.628;2022-08-11T10:53:44;3.95;;;3.10;;
25780;SDS011;13626;48.128;11.628;2022-08-11T10:56:32;4.38;;;2.80;;
25780;SDS011;13626;48.128;11.628;2022-08-11T10:59:19;3.63;;;3.03;;
25780;SDS011;13626;48.128;11.628;2022-08-11T11:01:48;5.93;;;3.20;;
25780;SDS011;13626;48.128;11.628;2022-08-11T11:04:16;4.40;;;3.10;;
25780;SDS011;13626;48.128;11.628;2022-08-11T11:06:48;5.75;;;2.95;;
25780;SDS011;13626;48.128;11.628;2022-08-11T11:09:17;3.35;;;2.88;;
25780;SDS011;13626;48.128;11.628;2022-08-11T11:11:49;5.10;;;2.92;;
25780;SDS011;13626;48.128;11.628;2022-08-11T11:14:39;5.18;;;3.58;;
25780;SDS011;13626;48.128;11.628;2022-08-11T11:17:37;3.58;;;2.70;;
25780;SDS011;13626;48.128;11.628;2022-08-11T11:20:41;4.85;;;3.15;;
25780;SDS011;13626;48.128;11.628;2022-08-11T11:23:22;5.97;;;2.85;;
25780;SDS011;13626;48.128;11.628;2022-08-11T11:36:45;3.15;;;2.47;;
25780;SDS011;13626;48.128;11.628;2022-08-11T11:39:15;4.38;;;2.60;;
25780;SDS011;13626;48.128;11.628;2022-08-11T11:41:43;8.73;;;2.50;;
25780;SDS011;13626;48.128;11.628;2022-08-11T11:44:11;4.07;;;2.53;;
25780;SDS011;13626;48.128;11.628;2022-08-11T11:46:39;7.95;;;3.15;;
25780;SDS011;13626;48.128;11.628;2022-08-11T11:49:07;5.10;;;2.83;;
25780;SDS011;13626;48.128;11.628;2022-08-11T11:51:42;3.90;;;2.60;;
25780;SDS011;13626;48.128;11.628;2022-08-11T11:54:10;4.75;;;2.45;;
25780;SDS011;13626;48.128;11.628;2022-08-11T11:56:39;5.10;;;2.83;;
25780;SDS011;13626;48.128;11.628;2022-08-11T11:59:07;3.40;;;2.40;;
25780;SDS011;13626;48.128;11.628;2022-08-11T12:01:54;3.13;;;2.55;;
25780;SDS011;13626;48.128;11.628;2022-08-11T12:04:22;3.42;;;2.55;;
25780;SDS011;13626;48.128;11.628;2022-08-11T12:06:53;4.15;;;2.58;;
25780;SDS011;13626;48.128;11.628;2022-08-11T12:09:40;4.95;;;2.70;;
25780;SDS011;13626;48.128;11.628;2022-08-11T12:12:08;3.90;;;2.45;;
25780;SDS011;13626;48.128;11.628;2022-08-11T12:14:53;4.88;;;2.60;;
25780;SDS011;13626;48.128;11.628;2022-08-11T12:17:21;3.72;;;2.28;;
25780;SDS011;13626;48.128;11.628;2022-08-11T12:19:48;3.40;;;2.70;;
25780;SDS011;13626;48.128;11.628;2022-08-11T12:22:17;6.10;;;2.63;;
25780;SDS011;13626;48.128;11.628;2022-08-11T12:25:04;3.08;;;2.30;;
25780;SDS011;13626;48.128;11.628;2022-08-11T12:27:52;3.13;;;2.35;;
25780;SDS011;13626;48.128;11.628;2022-08-11T12:30:19;6.60;;;2.80;;
25780;SDS011;13626;48.128;11.628;2022-08-11T12:32:47;6.88;;;2.75;;
25780;SDS011;13626;48.128;11.628;2022-08-11T12:35:14;3.83;;;2.40;;
25780;SDS011;13626;48.128;11.628;2022-08-11T12:37:49;4.20;;;2.33;;
25780;SDS011;13626;48.128;11.628;2022-08-11T12:40:30;3.08;;;2.50;;
25780;SDS011;13626;48.128;11.628;2022-08-11T12:43:35;9.27;;;2.92;;
25780;SDS011;13626;48.128;11.628;2022-08-11T12:46:23;4.70;;;2.72;;
25780;SDS011;13626;48.128;11.628;2022-08-11T12:48:56;6.75;;;2.55;;
25780;SDS011;13626;48.128;11.628;2022-08-11T12:51:47;3.55;;;2.35;;
25780;SDS011;13626;48.128;11.628;2022-08-11T13:00:17;3.00;;;2.45;;
25780;SDS011;13626;48.128;11.628;2022-08-11T13:03:04;3.30;;;2.42;;
25780;SDS011;13626;48.128;11.628;2022-08-11T13:05:52;3.78;;;2.38;;
25780;SDS011;13626;48.128;11.628;2022-08-11T13:08:21;3.90;;;2.50;;
25780;SDS011;13626;48.128;11.628;2022-08-11T13:10:53;8.27;;;2.40;;
25780;SDS011;13626;48.128;11.628;2022-08-11T13:13:40;4.47;;;2.28;;
25780;SDS011;13626;48.128;11.628;2022-08-11T13:16:23;4.10;;;2.67;;
25780;SDS011;13626;48.128;11.628;2022-08-11T13:18:51;5.75;;;2.60;;
25780;SDS011;13626;48.128;11.628;2022-08-11T13:21:19;4.60;;;2.45;;
25780;SDS011;13626;48.128;11.628;2022-08-11T13:23:51;4.55;;;2.30;;
25780;SDS011;13626;48.128;11.628;2022-08-11T13:26:35;2.50;;;2.30;;
25780;SDS011;13626;48.128;11.628;2022-08-11T13:29:22;6.38;;;2.53;;
25780;SDS011;13626;48.128;11.628;2022-08-11T13:31:51;3.03;;;2.40;;
25780;SDS011;13626;48.128;11.628;2022-08-11T13:34:19;2.50;;;2.17;;
25780;SDS011;13626;48.128;11.628;2022-08-11T13:36:48;2.70;;;2.50;;
25780;SDS011;13626;48.128;11.628;2022-08-11T13:39:18;2.35;;;2.10;;
25780;SDS011;13626;48.128;11.628;2022-08-11T13:41:49;2.88;;;2.30;;
25780;SDS011;13626;48.128;11.628;2022-08-11T13:44:16;4.55;;;2.50;;
25780;SDS011;13626;48.128;11.628;2022-08-11T13:46:50;2.55;;;2.22;;
25780;SDS011;13626;48.128;11.628;2022-08-11T13:49:18;3.15;;;2.10;;
25780;SDS011;13626;48.128;11.628;2022-08-11T13:51:46;8.98;;;2.92;;
25780;SDS011;13626;48.128;11.628;2022-08-11T13:54:18;3.80;;;2.60;;
25780;SDS011;13626;48.128;11.628;2022-08-11T13:56:46;2.80;;;2.45;;
25780;SDS011;13626;48.128;11.628;2022-08-11T13:59:14;4.10;;;2.60;;
25780;SDS011;13626;48.128;11.628;2022-08-11T14:01:52;4.28;;;2.50;;
25780;SDS011;13626;48.128;11.628;2022-08-11T14:04:44;2.88;;;2.40;;
25780;SDS011;13626;48.128;11.628;2022-08-11T14:07:16;2.80;;;2.30;;
25780;SDS011;13626;48.128;11.628;2022-08-11T14:09:45;2.40;;;2.20;;
25780;SDS011;13626;48.128;11.628;2022-08-11T14:12:40;4.65;;;2.40;;
25780;SDS011;13626;48.128;11.628;2022-08-11T14:15:28;2.50;;;2.30;;
25780;SDS011;13626;48.128;11.628;2022-08-11T14:17:58;3.50;;;2.40;;
25780;SDS011;13626;48.128;11.628;2022-08-11T14:20:28;5.28;;;2.70;;
25780;SDS011;13626;48.128;11.628;2022-08-11T14:23:15;4.93;;;2.53;;
25780;SDS011;13626;48.128;11.628;2022-08-11T14:25:42;2.30;;;2.10;;
25780;SDS011;13626;48.128;11.628;2022-08-11T14:28:31;5.25;;;2.58;;
25780;SDS011;13626;48.128;11.628;2022-08-11T14:31:07;2.45;;;2.15;;
25780;SDS011;13626;48.128;11.628;2022-08-11T14:33:34;3.83;;;2.65;;
25780;SDS011;13626;48.128;11.628;2022-08-11T14:36:25;3.63;;;2.30;;
25780;SDS011;13626;48.128;11.628;2022-08-11T14:38:54;3.35;;;2.35;;
25780;SDS011;13626;48.128;11.628;2022-08-11T14:41:22;3.63;;;2.10;;
25780;SDS011;13626;48.128;11.628;2022-08-11T14:44:29;4.55;;;2.22;;
25780;SDS011;13626;48.128;11.628;2022-08-11T14:47:18;2.15;;;2.00;;
25780;SDS011;13626;48.128;11.628;2022-08-11T14:49:50;2.55;;;2.17;;
25780;SDS011;13626;48.128;11.628;2022-08-11T14:52:34;2.38;;;2.17;;
25780;SDS011;13626;48.128;11.628;2022-08-11T14:55:02;4.90;;;2.38;;
25780;SDS011;13626;48.128;11.628;2022-08-11T14:57:48;2.30;;;2.10;;
25780;SDS011;13626;48.128;11.628;2022-08-11T15:00:30;2.80;;;2.60;;
25780;SDS011;13626;48.128;11.628;2022-08-11T15:02:58;6.40;;;3.05;;
25780;SDS011;13626;48.128;11.628;2022-08-11T15:05:58;2.45;;;2.22;;
25780;SDS011;13626;48.128;11.628;2022-08-11T15:08:26;2.00;;;1.90;;
25780;SDS011;13626;48.128;11.628;2022-08-11T15:11:14;4.60;;;2.15;;
25780;SDS011;13626;48.128;11.628;2022-08-11T15:14:01;5.50;;;2.28;;
25780;SDS011;13626;48.128;11.628;2022-08-11T15:16:29;4.93;;;2.47;;
25780;SDS011;13626;48.128;11.628;2022-08-11T15:19:14;3.50;;;1.95;;
25780;SDS011;13626;48.128;11.628;2022-08-11T15:21:42;2.72;;;2.30;;
25780;SDS011;13626;48.128;11.628;2022-08-11T15:24:28;3.28;;;2.03;;
25780;SDS011;13626;48.128;11.628;2022-08-11T15:26:56;3.45;;;2.45;;
25780;SDS011;13626;48.128;11.628;2022-08-11T15:29:43;2.30;;;2.10;;
25780;SDS011;13626;48.128;11.628;2022-08-11T15:32:30;3.83;;;2.60;;
25780;SDS011;13626;48.128;11.628;2022-08-11T15:35:17;2.30;;;2.10;;
25780;SDS011;13626;48.128;11.628;2022-08-11T15:38:05;4.30;;;2.35;;
25780;SDS011;13626;48.128;11.628;2022-08-11T15:40:34;4.18;;;2.10;;
25780;SDS011;13626;48.128;11.628;2022-08-11T15:43:24;3.78;;;2.05;;
25780;SDS011;13626;48.128;11.628;2022-08-11T15:46:15;4.00;;;2.50;;
25780;SDS011;13626;48.128;11.628;2022-08-11T15:48:47;2.85;;;2.30;;
25780;SDS011;13626;48.128;11.628;2022-08-11T15:56:22;3.40;;;2.28;;
25780;SDS011;13626;48.128;11.628;2022-08-11T15:58:49;5.10;;;2.60;;
25780;SDS011;13626;48.128;11.628;2022-08-11T16:01:56;2.30;;;2.10;;
25780;SDS011;13626;48.128;11.628;2022-08-11T16:04:45;1.92;;;1.80;;
25780;SDS011;13626;48.128;11.628;2022-08-11T16:07:14;2.95;;;2.20;;
25780;SDS011;13626;48.128;11.628;2022-08-11T16:12:30;2.70;;;2.10;;
25780;SDS011;13626;48.128;11.628;2022-08-11T16:15:01;2.65;;;2.03;;
25780;SDS011;13626;48.128;11.628;2022-08-11T16:17:49;4.07;;;2.72;;
25780;SDS011;13626;48.128;11.628;2022-08-11T16:20:22;4.50;;;2.30;;
25780;SDS011;13626;48.128;11.628;2022-08-11T16:22:51;2.22;;;2.00;;
25780;SDS011;13626;48.128;11.628;2022-08-11T16:25:25;2.75;;;2.05;;
25780;SDS011;13626;48.128;11.628;2022-08-11T16:28:13;3.95;;;2.35;;
25780;SDS011;13626;48.128;11.628;2022-08-11T16:30:42;3.28;;;2.10;;
25780;SDS011;13626;48.128;11.628;2022-08-11T16:33:12;3.00;;;2.40;;
25780;SDS011;13626;48.128;11.628;2022-08-11T16:36:02;2.35;;;2.03;;
25780;SDS011;13626;48.128;11.628;2022-08-11T16:38:48;3.22;;;2.28;;
25780;SDS011;13626;48.128;11.628;2022-08-11T16:41:16;4.75;;;2.47;;
25780;SDS011;13626;48.128;11.628;2022-08-11T16:44:08;3.55;;;2.30;;
25780;SDS011;13626;48.128;11.628;2022-08-11T16:47:04;2.63;;;2.40;;
25780;SDS011;13626;48.128;11.628;2022-08-11T16:49:32;3.75;;;2.35;;
25780;SDS011;13626;48.128;11.628;2022-08-11T16:52:02;4.43;;;3.05;;
25780;SDS011;13626;48.128;11.628;2022-08-11T16:54:33;2.88;;;2.50;;
25780;SDS011;13626;48.128;11.628;2022-08-11T16:57:34;4.75;;;2.40;;
25780;SDS011;13626;48.128;11.628;2022-08-11T17:00:14;2.67;;;2.13;;
25780;SDS011;13626;48.128;11.628;2022-08-11T17:02:43;2.83;;;2.30;;
25780;SDS011;13626;48.128;11.628;2022-08-11T17:05:31;2.97;;;2.42;;
25780;SDS011;13626;48.128;11.628;2022-08-11T17:08:21;3.53;;;2.65;;
25780;SDS011;13626;48.128;11.628;2022-08-11T17:11:23;3.95;;;2.28;;
25780;SDS011;13626;48.128;11.628;2022-08-11T17:14:12;2.33;;;2.10;;
25780;SDS011;13626;48.128;11.628;2022-08-11T17:16:40;4.25;;;2.15;;
25780;SDS011;13626;48.128;11.628;2022-08-11T17:19:27;3.67;;;2.63;;
25780;SDS011;13626;48.128;11.628;2022-08-11T17:22:17;6.68;;;2.50;;
25780;SDS011;13626;48.128;11.628;2022-08-11T17:25:04;4.78;;;2.20;;
25780;SDS011;13626;48.128;11.628;2022-08-11T17:27:32;3.53;;;2.30;;
25780;SDS011;13626;48.128;11.628;2022-08-11T17:30:01;3.47;;;2.00;;
25780;SDS011;13626;48.128;11.628;2022-08-11T17:35:33;2.85;;;2.00;;
25780;SDS011;13626;48.128;11.628;2022-08-11T17:38:10;3.72;;;2.40;;
25780;SDS011;13626;48.128;11.628;2022-08-11T17:40:42;6.93;;;2.15;;
25780;SDS011;13626;48.128;11.628;2022-08-11T17:43:30;2.47;;;1.80;;
25780;SDS011;13626;48.128;11.628;2022-08-11T17:46:17;5.03;;;2.13;;
25780;SDS011;13626;48.128;11.628;2022-08-11T17:49:04;3.58;;;2.03;;
25780;SDS011;13626;48.128;11.628;2022-08-11T17:51:33;5.40;;;2.13;;
25780;SDS011;13626;48.128;11.628;2022-08-11T17:54:19;4.75;;;2.30;;
25780;SDS011;13626;48.128;11.628;2022-08-11T17:57:07;3.75;;;1.90;;
25780;SDS011;13626;48.128;11.628;2022-08-11T17:59:53;3.42;;;1.85;;
25780;SDS011;13626;48.128;11.628;2022-08-11T18:02:29;4.10;;;2.42;;
25780;SDS011;13626;48.128;11.628;2022-08-11T18:05:18;2.42;;;1.90;;
25780;SDS011;13626;48.128;11.628;2022-08-11T18:07:47;3.08;;;2.10;;
25780;SDS011;13626;48.128;11.628;2022-08-11T18:10:35;2.20;;;2.00;;
25780;SDS011;13626;48.128;11.628;2022-08-11T18:13:21;2.17;;;1.98;;
25780;SDS011;13626;48.128;11.628;2022-08-11T18:16:08;2.20;;;1.83;;
25780;SDS011;13626;48.128;11.628;2022-08-11T18:18:54;2.13;;;1.92;;
25780;SDS011;13626;48.128;11.628;2022-08-11T18:21:43;3.63;;;2.38;;
25780;SDS011;13626;48.128;11.628;2022-08-11T18:24:45;3.70;;;1.80;;
25780;SDS011;13626;48.128;11.628;2022-08-11T18:27:32;2.13;;;1.85;;
25780;SDS011;13626;48.128;11.628;2022-08-11T18:30:19;3.55;;;1.85;;
25780;SDS011;13626;48.128;11.628;2022-08-11T18:33:05;2.80;;;1.98;;
25780;SDS011;13626;48.128;11.628;2022-08-11T18:36:12;4.35;;;1.80;;
25780;SDS011;13626;48.128;11.628;2022-08-11T18:38:59;3.35;;;2.30;;
25780;SDS011;13626;48.128;11.628;2022-08-11T18:41:46;4.47;;;1.90;;
25780;SDS011;13626;48.128;11.628;2022-08-11T18:44:32;3.00;;;2.00;;
25780;SDS011;13626;48.128;11.628;2022-08-11T18:47:26;2.03;;;1.77;;
25780;SDS011;13626;48.128;11.628;2022-08-11T18:50:18;3.60;;;1.98;;
25780;SDS011;13626;48.128;11.628;2022-08-11T18:53:05;2.85;;;2.00;;
25780;SDS011;13626;48.128;11.628;2022-08-11T18:55:51;1.75;;;1.48;;
25780;SDS011;13626;48.128;11.628;2022-08-11T18:58:37;6.97;;;2.35;;
25780;SDS011;13626;48.128;11.628;2022-08-11T19:01:26;3.17;;;2.10;;
25780;SDS011;13626;48.128;11.628;2022-08-11T19:04:12;2.58;;;1.90;;
25780;SDS011;13626;48.128;11.628;2022-08-11T19:07:03;4.22;;;1.70;;
25780;SDS011;13626;48.128;11.628;2022-08-11T19:09:51;2.60;;;2.00;;
25780;SDS011;13626;48.128;11.628;2022-08-11T19:12:38;3.13;;;2.00;;
25780;SDS011;13626;48.128;11.628;2022-08-11T19:15:25;2.10;;;1.90;;
25780;SDS011;13626;48.128;11.628;2022-08-11T19:18:13;3.47;;;2.10;;